sensor_id;sensor_type;location;lat;lon;timestamp;P1;durP1;ratioP1;P2;durP2;ratioP2
43801;SDS011;29429;51.074;13.764;2023-09-18T00:01:52;6.07;;;3.63;;
43801;SDS011;29429;51.074;13.764;2023-09-18T00:04:19;4.00;;;3.60;;
43801;SDS011;29429;51.074;13.764;2023-09-18T00:06:47;4.93;;;3.78;;
43801;SDS011;29429;51.074;13.764;2023-09-18T00:09:14;4.07;;;3.67;;
43801;SDS011;29429;51.074;13.764;2023-09-18T00:11:42;4.63;;;3.97;;
43801;SDS011;29429;51.074;13.764;2023-09-18T00:14:10;5.43;;;3.92;;
43801;SDS011;29429;51.074;13.764;2023-09-18T00:16:37;3.80;;;3.45;;
43801;SDS011;29429;51.074;13.764;2023-09-18T00:19:23;4.22;;;3.83;;
43801;SDS011;29429;51.074;13.764;2023-09-18T00:21:51;4.90;;;3.70;;
43801;SDS011;29429;51.074;13.764;2023-09-18T00:24:19;4.07;;;3.55;;
43801;SDS011;29429;51.074;13.764;2023-09-18T00:26:47;4.65;;;3.88;;
43801;SDS011;29429;51.074;13.764;2023-09-18T00:29:15;4.18;;;3.78;;
43801;SDS011;29429;51.074;13.764;2023-09-18T00:31:42;3.88;;;3.58;;
43801;SDS011;29429;51.074;13.764;2023-09-18T00:34:09;4.80;;;3.83;;
43801;SDS011;29429;51.074;13.764;2023-09-18T00:36:37;5.53;;;3.90;;
43801;SDS011;29429;51.074;13.764;2023-09-18T00:39:04;4.45;;;4.05;;
43801;SDS011;29429;51.074;13.764;2023-09-18T00:41:32;5.40;;;4.18;;
43801;SDS011;29429;51.074;13.764;2023-09-18T00:43:59;4.43;;;3.95;;
43801;SDS011;29429;51.074;13.764;2023-09-18T00:46:26;5.50;;;3.97;;
43801;SDS011;29429;51.074;13.764;2023-09-18T00:48:54;6.25;;;4.15;;
43801;SDS011;29429;51.074;13.764;2023-09-18T00:51:22;6.78;;;4.47;;
43801;SDS011;29429;51.074;13.764;2023-09-18T00:53:49;5.30;;;4.30;;
43801;SDS011;29429;51.074;13.764;2023-09-18T00:56:17;4.82;;;4.22;;
43801;SDS011;29429;51.074;13.764;2023-09-18T00:58:49;4.93;;;3.85;;
43801;SDS011;29429;51.074;13.764;2023-09-18T01:01:18;7.10;;;4.65;;
43801;SDS011;29429;51.074;13.764;2023-09-18T01:03:49;5.45;;;4.28;;
43801;SDS011;29429;51.074;13.764;2023-09-18T01:06:18;5.20;;;4.28;;
43801;SDS011;29429;51.074;13.764;2023-09-18T01:08:47;4.75;;;3.92;;
43801;SDS011;29429;51.074;13.764;2023-09-18T01:11:27;5.25;;;4.65;;
43801;SDS011;29429;51.074;13.764;2023-09-18T01:14:09;5.47;;;4.72;;
43801;SDS011;29429;51.074;13.764;2023-09-18T01:16:50;5.70;;;5.10;;
43801;SDS011;29429;51.074;13.764;2023-09-18T01:19:36;6.32;;;4.97;;
43801;SDS011;29429;51.074;13.764;2023-09-18T01:22:08;5.90;;;5.07;;
43801;SDS011;29429;51.074;13.764;2023-09-18T01:24:37;4.85;;;4.38;;
43801;SDS011;29429;51.074;13.764;2023-09-18T01:27:07;6.72;;;4.28;;
43801;SDS011;29429;51.074;13.764;2023-09-18T01:29:36;6.68;;;4.78;;
43801;SDS011;29429;51.074;13.764;2023-09-18T01:32:04;5.38;;;4.57;;
43801;SDS011;29429;51.074;13.764;2023-09-18T01:34:42;6.47;;;4.88;;
43801;SDS011;29429;51.074;13.764;2023-09-18T01:37:15;5.22;;;4.72;;
43801;SDS011;29429;51.074;13.764;2023-09-18T01:39:46;4.50;;;4.10;;
43801;SDS011;29429;51.074;13.764;2023-09-18T01:42:16;4.70;;;4.30;;
43801;SDS011;29429;51.074;13.764;2023-09-18T01:44:44;5.80;;;4.88;;
43801;SDS011;29429;51.074;13.764;2023-09-18T01:47:15;5.13;;;4.63;;
43801;SDS011;29429;51.074;13.764;2023-09-18T01:49:44;5.07;;;4.57;;
43801;SDS011;29429;51.074;13.764;2023-09-18T01:52:12;5.35;;;4.53;;
43801;SDS011;29429;51.074;13.764;2023-09-18T01:54:40;5.32;;;4.60;;
43801;SDS011;29429;51.074;13.764;2023-09-18T01:57:07;6.07;;;4.68;;
43801;SDS011;29429;51.074;13.764;2023-09-18T01:59:35;4.97;;;4.47;;
43801;SDS011;29429;51.074;13.764;2023-09-18T02:02:04;6.95;;;4.63;;
43801;SDS011;29429;51.074;13.764;2023-09-18T02:04:42;5.57;;;5.07;;
43801;SDS011;29429;51.074;13.764;2023-09-18T02:07:15;5.53;;;4.70;;
43801;SDS011;29429;51.074;13.764;2023-09-18T02:09:43;5.78;;;4.82;;
43801;SDS011;29429;51.074;13.764;2023-09-18T02:12:11;6.63;;;5.13;;
43801;SDS011;29429;51.074;13.764;2023-09-18T02:14:44;5.45;;;4.72;;
43801;SDS011;29429;51.074;13.764;2023-09-18T02:17:11;5.78;;;5.18;;
43801;SDS011;29429;51.074;13.764;2023-09-18T02:19:39;5.72;;;5.20;;
43801;SDS011;29429;51.074;13.764;2023-09-18T02:22:07;5.05;;;4.63;;
43801;SDS011;29429;51.074;13.764;2023-09-18T02:24:34;5.25;;;4.63;;
43801;SDS011;29429;51.074;13.764;2023-09-18T02:27:05;5.75;;;5.15;;
43801;SDS011;29429;51.074;13.764;2023-09-18T02:29:33;6.35;;;4.82;;
43801;SDS011;29429;51.074;13.764;2023-09-18T02:32:00;6.60;;;4.90;;
43801;SDS011;29429;51.074;13.764;2023-09-18T02:34:28;6.78;;;5.07;;
43801;SDS011;29429;51.074;13.764;2023-09-18T02:36:57;5.90;;;5.13;;
43801;SDS011;29429;51.074;13.764;2023-09-18T02:39:24;5.85;;;5.10;;
43801;SDS011;29429;51.074;13.764;2023-09-18T02:41:53;5.38;;;4.80;;
43801;SDS011;29429;51.074;13.764;2023-09-18T02:44:20;5.82;;;5.22;;
43801;SDS011;29429;51.074;13.764;2023-09-18T02:46:48;5.85;;;5.30;;
43801;SDS011;29429;51.074;13.764;2023-09-18T02:49:15;7.10;;;5.50;;
43801;SDS011;29429;51.074;13.764;2023-09-18T02:51:43;5.90;;;5.00;;
43801;SDS011;29429;51.074;13.764;2023-09-18T02:54:10;5.38;;;4.88;;
43801;SDS011;29429;51.074;13.764;2023-09-18T02:56:38;7.68;;;5.50;;
43801;SDS011;29429;51.074;13.764;2023-09-18T02:59:06;6.78;;;5.78;;
43801;SDS011;29429;51.074;13.764;2023-09-18T03:01:34;5.97;;;5.35;;
43801;SDS011;29429;51.074;13.764;2023-09-18T03:04:01;5.25;;;4.45;;
43801;SDS011;29429;51.074;13.764;2023-09-18T03:06:30;6.07;;;5.32;;
43801;SDS011;29429;51.074;13.764;2023-09-18T03:08:57;6.53;;;5.18;;
43801;SDS011;29429;51.074;13.764;2023-09-18T03:11:25;5.97;;;5.38;;
43801;SDS011;29429;51.074;13.764;2023-09-18T03:13:56;6.70;;;5.25;;
43801;SDS011;29429;51.074;13.764;2023-09-18T03:16:23;5.85;;;5.20;;
43801;SDS011;29429;51.074;13.764;2023-09-18T03:18:51;5.82;;;5.22;;
43801;SDS011;29429;51.074;13.764;2023-09-18T03:21:19;6.97;;;5.20;;
43801;SDS011;29429;51.074;13.764;2023-09-18T03:23:46;5.72;;;5.13;;
43801;SDS011;29429;51.074;13.764;2023-09-18T03:26:13;5.63;;;4.95;;
43801;SDS011;29429;51.074;13.764;2023-09-18T03:28:41;5.70;;;5.10;;
43801;SDS011;29429;51.074;13.764;2023-09-18T03:31:09;6.07;;;4.95;;
43801;SDS011;29429;51.074;13.764;2023-09-18T03:33:37;6.50;;;5.28;;
43801;SDS011;29429;51.074;13.764;2023-09-18T03:36:04;6.85;;;5.43;;
43801;SDS011;29429;51.074;13.764;2023-09-18T03:38:33;5.85;;;5.25;;
43801;SDS011;29429;51.074;13.764;2023-09-18T03:41:02;5.78;;;5.18;;
43801;SDS011;29429;51.074;13.764;2023-09-18T03:43:30;5.63;;;5.10;;
43801;SDS011;29429;51.074;13.764;2023-09-18T03:46:04;5.88;;;4.88;;
43801;SDS011;29429;51.074;13.764;2023-09-18T03:48:37;6.93;;;5.50;;
43801;SDS011;29429;51.074;13.764;2023-09-18T03:51:05;6.32;;;5.72;;
43801;SDS011;29429;51.074;13.764;2023-09-18T03:53:34;5.72;;;5.13;;
43801;SDS011;29429;51.074;13.764;2023-09-18T03:56:02;7.93;;;5.78;;
43801;SDS011;29429;51.074;13.764;2023-09-18T03:58:30;5.93;;;5.38;;
43801;SDS011;29429;51.074;13.764;2023-09-18T04:01:01;5.70;;;4.90;;
43801;SDS011;29429;51.074;13.764;2023-09-18T04:03:29;6.10;;;5.30;;
43801;SDS011;29429;51.074;13.764;2023-09-18T04:05:58;6.28;;;5.57;;
43801;SDS011;29429;51.074;13.764;2023-09-18T04:08:25;5.30;;;4.80;;
43801;SDS011;29429;51.074;13.764;2023-09-18T04:10:54;6.80;;;5.35;;
43801;SDS011;29429;51.074;13.764;2023-09-18T04:13:23;5.63;;;4.93;;
43801;SDS011;29429;51.074;13.764;2023-09-18T04:15:52;6.45;;;5.85;;
43801;SDS011;29429;51.074;13.764;2023-09-18T04:18:24;7.90;;;5.80;;
43801;SDS011;29429;51.074;13.764;2023-09-18T04:20:52;7.22;;;5.68;;
43801;SDS011;29429;51.074;13.764;2023-09-18T04:23:24;6.45;;;5.82;;
43801;SDS011;29429;51.074;13.764;2023-09-18T04:25:54;6.78;;;5.97;;
43801;SDS011;29429;51.074;13.764;2023-09-18T04:28:22;6.45;;;5.80;;
43801;SDS011;29429;51.074;13.764;2023-09-18T04:30:50;6.05;;;5.45;;
43801;SDS011;29429;51.074;13.764;2023-09-18T04:33:18;6.20;;;5.60;;
43801;SDS011;29429;51.074;13.764;2023-09-18T04:35:48;7.30;;;5.60;;
43801;SDS011;29429;51.074;13.764;2023-09-18T04:38:15;9.07;;;5.72;;
43801;SDS011;29429;51.074;13.764;2023-09-18T04:40:46;6.43;;;5.65;;
43801;SDS011;29429;51.074;13.764;2023-09-18T04:43:14;6.22;;;5.63;;
43801;SDS011;29429;51.074;13.764;2023-09-18T04:45:42;7.80;;;6.25;;
43801;SDS011;29429;51.074;13.764;2023-09-18T04:48:11;6.68;;;5.80;;
43801;SDS011;29429;51.074;13.764;2023-09-18T04:50:39;5.97;;;5.47;;
43801;SDS011;29429;51.074;13.764;2023-09-18T04:53:07;6.50;;;5.78;;
43801;SDS011;29429;51.074;13.764;2023-09-18T04:55:35;6.15;;;5.55;;
43801;SDS011;29429;51.074;13.764;2023-09-18T04:58:04;6.40;;;5.70;;
43801;SDS011;29429;51.074;13.764;2023-09-18T05:00:32;8.10;;;6.00;;
43801;SDS011;29429;51.074;13.764;2023-09-18T05:03:00;7.85;;;6.47;;
43801;SDS011;29429;51.074;13.764;2023-09-18T05:05:30;6.10;;;5.50;;
43801;SDS011;29429;51.074;13.764;2023-09-18T05:07:58;6.03;;;5.50;;
43801;SDS011;29429;51.074;13.764;2023-09-18T05:10:28;8.23;;;5.95;;
43801;SDS011;29429;51.074;13.764;2023-09-18T05:12:56;6.20;;;5.60;;
43801;SDS011;29429;51.074;13.764;2023-09-18T05:15:26;7.20;;;6.18;;
43801;SDS011;29429;51.074;13.764;2023-09-18T05:17:57;9.20;;;5.55;;
43801;SDS011;29429;51.074;13.764;2023-09-18T05:20:27;8.38;;;6.00;;
43801;SDS011;29429;51.074;13.764;2023-09-18T05:22:55;7.10;;;5.90;;
43801;SDS011;29429;51.074;13.764;2023-09-18T05:25:25;7.47;;;5.95;;
43801;SDS011;29429;51.074;13.764;2023-09-18T05:27:54;6.72;;;5.68;;
43801;SDS011;29429;51.074;13.764;2023-09-18T05:30:24;6.20;;;5.20;;
43801;SDS011;29429;51.074;13.764;2023-09-18T05:33:01;6.15;;;5.55;;
43801;SDS011;29429;51.074;13.764;2023-09-18T05:35:39;5.97;;;5.38;;
43801;SDS011;29429;51.074;13.764;2023-09-18T05:38:12;6.45;;;5.43;;
43801;SDS011;29429;51.074;13.764;2023-09-18T05:40:41;7.70;;;5.80;;
43801;SDS011;29429;51.074;13.764;2023-09-18T05:43:10;6.13;;;5.53;;
43801;SDS011;29429;51.074;13.764;2023-09-18T05:45:38;6.05;;;4.95;;
43801;SDS011;29429;51.074;13.764;2023-09-18T05:48:06;6.53;;;5.85;;
43801;SDS011;29429;51.074;13.764;2023-09-18T05:50:34;7.13;;;5.60;;
43801;SDS011;29429;51.074;13.764;2023-09-18T05:53:03;6.72;;;5.18;;
43801;SDS011;29429;51.074;13.764;2023-09-18T05:55:31;5.53;;;4.97;;
43801;SDS011;29429;51.074;13.764;2023-09-18T05:57:59;5.72;;;5.22;;
43801;SDS011;29429;51.074;13.764;2023-09-18T06:00:29;5.78;;;4.78;;
43801;SDS011;29429;51.074;13.764;2023-09-18T06:02:58;5.75;;;4.82;;
43801;SDS011;29429;51.074;13.764;2023-09-18T06:05:26;6.65;;;5.80;;
43801;SDS011;29429;51.074;13.764;2023-09-18T06:07:54;6.65;;;5.72;;
43801;SDS011;29429;51.074;13.764;2023-09-18T06:10:21;6.13;;;5.43;;
43801;SDS011;29429;51.074;13.764;2023-09-18T06:12:49;7.65;;;5.45;;
43801;SDS011;29429;51.074;13.764;2023-09-18T06:15:16;6.15;;;5.32;;
43801;SDS011;29429;51.074;13.764;2023-09-18T06:17:45;6.00;;;5.13;;
43801;SDS011;29429;51.074;13.764;2023-09-18T06:20:12;6.38;;;5.75;;
43801;SDS011;29429;51.074;13.764;2023-09-18T06:22:42;6.45;;;5.68;;
43801;SDS011;29429;51.074;13.764;2023-09-18T06:25:10;6.32;;;5.57;;
43801;SDS011;29429;51.074;13.764;2023-09-18T06:27:38;8.40;;;6.18;;
43801;SDS011;29429;51.074;13.764;2023-09-18T06:30:05;7.45;;;6.32;;
43801;SDS011;29429;51.074;13.764;2023-09-18T06:32:33;6.32;;;5.55;;
43801;SDS011;29429;51.074;13.764;2023-09-18T06:35:03;6.90;;;6.15;;
43801;SDS011;29429;51.074;13.764;2023-09-18T06:37:31;6.60;;;5.95;;
43801;SDS011;29429;51.074;13.764;2023-09-18T06:39:58;6.07;;;5.43;;
43801;SDS011;29429;51.074;13.764;2023-09-18T06:42:30;6.32;;;5.72;;
43801;SDS011;29429;51.074;13.764;2023-09-18T06:44:58;6.15;;;5.55;;
43801;SDS011;29429;51.074;13.764;2023-09-18T06:47:27;7.63;;;5.97;;
43801;SDS011;29429;51.074;13.764;2023-09-18T06:49:55;7.25;;;6.45;;
43801;SDS011;29429;51.074;13.764;2023-09-18T06:52:23;6.97;;;6.28;;
43801;SDS011;29429;51.074;13.764;2023-09-18T06:54:52;6.68;;;5.97;;
43801;SDS011;29429;51.074;13.764;2023-09-18T06:57:22;8.15;;;6.05;;
43801;SDS011;29429;51.074;13.764;2023-09-18T06:59:52;8.77;;;5.35;;
43801;SDS011;29429;51.074;13.764;2023-09-18T07:02:19;6.68;;;6.05;;
43801;SDS011;29429;51.074;13.764;2023-09-18T07:04:47;6.45;;;5.85;;
43801;SDS011;29429;51.074;13.764;2023-09-18T07:07:14;6.28;;;5.68;;
43801;SDS011;29429;51.074;13.764;2023-09-18T07:09:42;6.78;;;5.13;;
43801;SDS011;29429;51.074;13.764;2023-09-18T07:12:12;9.68;;;6.13;;
43801;SDS011;29429;51.074;13.764;2023-09-18T07:14:40;7.70;;;6.15;;
43801;SDS011;29429;51.074;13.764;2023-09-18T07:17:07;5.60;;;5.03;;
43801;SDS011;29429;51.074;13.764;2023-09-18T07:19:35;8.88;;;5.97;;
43801;SDS011;29429;51.074;13.764;2023-09-18T07:22:03;6.85;;;5.53;;
43801;SDS011;29429;51.074;13.764;2023-09-18T07:24:30;6.93;;;6.22;;
43801;SDS011;29429;51.074;13.764;2023-09-18T07:26:58;7.85;;;5.93;;
43801;SDS011;29429;51.074;13.764;2023-09-18T07:29:25;9.40;;;5.65;;
43801;SDS011;29429;51.074;13.764;2023-09-18T07:31:53;6.32;;;5.70;;
43801;SDS011;29429;51.074;13.764;2023-09-18T07:34:21;7.45;;;5.97;;
43801;SDS011;29429;51.074;13.764;2023-09-18T07:36:48;7.07;;;5.80;;
43801;SDS011;29429;51.074;13.764;2023-09-18T07:39:22;6.40;;;5.38;;
43801;SDS011;29429;51.074;13.764;2023-09-18T07:41:50;5.65;;;5.15;;
43801;SDS011;29429;51.074;13.764;2023-09-18T07:44:19;6.22;;;5.25;;
43801;SDS011;29429;51.074;13.764;2023-09-18T07:46:47;7.43;;;5.65;;
43801;SDS011;29429;51.074;13.764;2023-09-18T07:49:17;6.22;;;5.53;;
43801;SDS011;29429;51.074;13.764;2023-09-18T07:51:44;6.57;;;5.60;;
43801;SDS011;29429;51.074;13.764;2023-09-18T07:54:13;5.40;;;4.90;;
43801;SDS011;29429;51.074;13.764;2023-09-18T07:56:43;5.60;;;5.10;;
43801;SDS011;29429;51.074;13.764;2023-09-18T07:59:11;7.65;;;4.82;;
43801;SDS011;29429;51.074;13.764;2023-09-18T08:01:40;6.03;;;5.40;;
43801;SDS011;29429;51.074;13.764;2023-09-18T08:04:08;6.05;;;5.30;;
43801;SDS011;29429;51.074;13.764;2023-09-18T08:06:36;5.78;;;5.00;;
43801;SDS011;29429;51.074;13.764;2023-09-18T08:09:08;5.25;;;4.72;;
43801;SDS011;29429;51.074;13.764;2023-09-18T08:11:42;5.53;;;4.88;;
43801;SDS011;29429;51.074;13.764;2023-09-18T08:14:13;6.05;;;4.60;;
43801;SDS011;29429;51.074;13.764;2023-09-18T08:16:40;5.43;;;4.80;;
43801;SDS011;29429;51.074;13.764;2023-09-18T08:19:08;9.32;;;4.90;;
43801;SDS011;29429;51.074;13.764;2023-09-18T08:21:36;4.82;;;4.07;;
43801;SDS011;29429;51.074;13.764;2023-09-18T08:24:03;6.78;;;4.55;;
43801;SDS011;29429;51.074;13.764;2023-09-18T08:26:31;5.30;;;4.22;;
43801;SDS011;29429;51.074;13.764;2023-09-18T08:28:58;5.93;;;4.65;;
43801;SDS011;29429;51.074;13.764;2023-09-18T08:31:26;5.93;;;4.50;;
43801;SDS011;29429;51.074;13.764;2023-09-18T08:33:56;6.18;;;4.60;;
43801;SDS011;29429;51.074;13.764;2023-09-18T08:36:25;5.18;;;4.28;;
43801;SDS011;29429;51.074;13.764;2023-09-18T08:38:55;4.90;;;4.30;;
43801;SDS011;29429;51.074;13.764;2023-09-18T08:41:23;5.07;;;4.63;;
43801;SDS011;29429;51.074;13.764;2023-09-18T08:44:00;5.95;;;4.47;;
43801;SDS011;29429;51.074;13.764;2023-09-18T08:46:30;5.97;;;4.10;;
43801;SDS011;29429;51.074;13.764;2023-09-18T08:48:59;7.00;;;4.50;;
43801;SDS011;29429;51.074;13.764;2023-09-18T08:51:27;6.88;;;4.65;;
43801;SDS011;29429;51.074;13.764;2023-09-18T08:53:55;5.43;;;4.10;;
43801;SDS011;29429;51.074;13.764;2023-09-18T08:56:23;4.30;;;3.90;;
43801;SDS011;29429;51.074;13.764;2023-09-18T08:58:51;8.73;;;4.93;;
43801;SDS011;29429;51.074;13.764;2023-09-18T09:01:20;4.30;;;3.70;;
43801;SDS011;29429;51.074;13.764;2023-09-18T09:03:48;4.32;;;3.80;;
43801;SDS011;29429;51.074;13.764;2023-09-18T09:06:18;4.10;;;3.70;;
43801;SDS011;29429;51.074;13.764;2023-09-18T09:08:46;5.13;;;4.35;;
43801;SDS011;29429;51.074;13.764;2023-09-18T09:11:15;4.30;;;3.90;;
43801;SDS011;29429;51.074;13.764;2023-09-18T09:13:42;3.88;;;3.47;;
43801;SDS011;29429;51.074;13.764;2023-09-18T09:16:12;4.57;;;3.70;;
43801;SDS011;29429;51.074;13.764;2023-09-18T09:18:48;5.80;;;3.60;;
43801;SDS011;29429;51.074;13.764;2023-09-18T09:21:18;4.75;;;3.90;;
43801;SDS011;29429;51.074;13.764;2023-09-18T09:23:52;3.85;;;3.50;;
43801;SDS011;29429;51.074;13.764;2023-09-18T09:26:21;4.75;;;3.53;;
43801;SDS011;29429;51.074;13.764;2023-09-18T09:28:49;4.22;;;3.67;;
43801;SDS011;29429;51.074;13.764;2023-09-18T09:31:28;3.67;;;3.33;;
43801;SDS011;29429;51.074;13.764;2023-09-18T09:33:57;3.47;;;3.17;;
43801;SDS011;29429;51.074;13.764;2023-09-18T09:36:27;7.68;;;3.45;;
43801;SDS011;29429;51.074;13.764;2023-09-18T09:38:55;3.53;;;3.22;;
43801;SDS011;29429;51.074;13.764;2023-09-18T09:41:25;4.43;;;3.65;;
43801;SDS011;29429;51.074;13.764;2023-09-18T09:43:56;4.22;;;3.88;;
43801;SDS011;29429;51.074;13.764;2023-09-18T09:46:24;4.15;;;2.90;;
43801;SDS011;29429;51.074;13.764;2023-09-18T09:49:02;4.05;;;3.50;;
43801;SDS011;29429;51.074;13.764;2023-09-18T09:51:32;4.20;;;3.13;;
43801;SDS011;29429;51.074;13.764;2023-09-18T09:54:01;3.50;;;3.05;;
43801;SDS011;29429;51.074;13.764;2023-09-18T09:56:42;4.97;;;3.30;;
43801;SDS011;29429;51.074;13.764;2023-09-18T09:59:15;6.10;;;3.38;;
43801;SDS011;29429;51.074;13.764;2023-09-18T10:02:12;4.38;;;3.42;;
43801;SDS011;29429;51.074;13.764;2023-09-18T10:04:49;3.50;;;3.20;;
43801;SDS011;29429;51.074;13.764;2023-09-18T10:07:22;3.90;;;3.60;;
43801;SDS011;29429;51.074;13.764;2023-09-18T10:09:49;5.65;;;3.80;;
43801;SDS011;29429;51.074;13.764;2023-09-18T10:12:33;3.78;;;3.38;;
43801;SDS011;29429;51.074;13.764;2023-09-18T10:15:10;3.60;;;3.17;;
43801;SDS011;29429;51.074;13.764;2023-09-18T10:17:54;3.92;;;3.17;;
43801;SDS011;29429;51.074;13.764;2023-09-18T10:20:26;3.75;;;3.33;;
43801;SDS011;29429;51.074;13.764;2023-09-18T10:22:56;3.30;;;3.00;;
43801;SDS011;29429;51.074;13.764;2023-09-18T10:33:15;4.32;;;3.30;;
43801;SDS011;29429;51.074;13.764;2023-09-18T10:35:56;3.60;;;3.28;;
43801;SDS011;29429;51.074;13.764;2023-09-18T10:41:53;5.75;;;3.80;;
43801;SDS011;29429;51.074;13.764;2023-09-18T10:55:35;6.20;;;3.40;;
43801;SDS011;29429;51.074;13.764;2023-09-18T11:01:40;3.67;;;3.37;;
43801;SDS011;29429;51.074;13.764;2023-09-18T11:04:08;3.70;;;3.25;;
43801;SDS011;29429;51.074;13.764;2023-09-18T11:09:40;3.67;;;3.28;;
43801;SDS011;29429;51.074;13.764;2023-09-18T12:11:40;3.90;;;3.60;;
43801;SDS011;29429;51.074;13.764;2023-09-18T12:14:09;5.63;;;4.13;;
43801;SDS011;29429;51.074;13.764;2023-09-18T12:19:17;4.47;;;4.00;;
43801;SDS011;29429;51.074;13.764;2023-09-18T12:21:47;4.83;;;4.03;;
43801;SDS011;29429;51.074;13.764;2023-09-18T12:28:15;5.03;;;4.15;;
43801;SDS011;29429;51.074;13.764;2023-09-18T12:31:15;5.15;;;4.25;;
43801;SDS011;29429;51.074;13.764;2023-09-18T12:33:50;5.90;;;4.30;;
43801;SDS011;29429;51.074;13.764;2023-09-18T15:36:41;3.45;;;1.30;;
43801;SDS011;29429;51.074;13.764;2023-09-18T15:39:12;4.65;;;0.93;;
43801;SDS011;29429;51.074;13.764;2023-09-18T15:41:39;7.72;;;1.25;;
43801;SDS011;29429;51.074;13.764;2023-09-18T15:44:07;3.50;;;1.00;;
43801;SDS011;29429;51.074;13.764;2023-09-18T15:46:36;3.97;;;1.10;;
43801;SDS011;29429;51.074;13.764;2023-09-18T15:49:18;3.40;;;1.10;;
43801;SDS011;29429;51.074;13.764;2023-09-18T15:51:45;4.97;;;0.80;;
43801;SDS011;29429;51.074;13.764;2023-09-18T15:54:13;3.80;;;0.80;;
43801;SDS011;29429;51.074;13.764;2023-09-18T15:56:41;3.85;;;0.70;;
43801;SDS011;29429;51.074;13.764;2023-09-18T15:59:10;3.00;;;0.77;;
43801;SDS011;29429;51.074;13.764;2023-09-18T16:01:38;2.28;;;0.98;;
43801;SDS011;29429;51.074;13.764;2023-09-18T16:04:06;3.53;;;0.85;;
43801;SDS011;29429;51.074;13.764;2023-09-18T16:06:34;4.70;;;1.08;;
43801;SDS011;29429;51.074;13.764;2023-09-18T16:09:02;3.22;;;1.27;;
43801;SDS011;29429;51.074;13.764;2023-09-18T16:11:32;3.72;;;1.55;;
43801;SDS011;29429;51.074;13.764;2023-09-18T16:14:00;1.83;;;1.00;;
43801;SDS011;29429;51.074;13.764;2023-09-18T16:16:27;5.30;;;1.30;;
43801;SDS011;29429;51.074;13.764;2023-09-18T16:18:57;6.53;;;1.08;;
43801;SDS011;29429;51.074;13.764;2023-09-18T16:26:20;4.07;;;1.88;;
43801;SDS011;29429;51.074;13.764;2023-09-18T16:29:05;2.65;;;1.10;;
43801;SDS011;29429;51.074;13.764;2023-09-18T16:31:33;3.00;;;1.25;;
43801;SDS011;29429;51.074;13.764;2023-09-18T16:34:00;3.53;;;1.20;;
43801;SDS011;29429;51.074;13.764;2023-09-18T16:36:29;5.35;;;1.80;;
43801;SDS011;29429;51.074;13.764;2023-09-18T16:38:56;3.88;;;1.20;;
43801;SDS011;29429;51.074;13.764;2023-09-18T16:41:24;3.78;;;1.30;;
43801;SDS011;29429;51.074;13.764;2023-09-18T16:43:52;2.97;;;1.20;;
43801;SDS011;29429;51.074;13.764;2023-09-18T16:46:32;3.50;;;1.30;;
43801;SDS011;29429;51.074;13.764;2023-09-18T16:49:00;5.95;;;1.02;;
43801;SDS011;29429;51.074;13.764;2023-09-18T16:51:28;4.78;;;1.30;;
43801;SDS011;29429;51.074;13.764;2023-09-18T16:53:56;4.30;;;1.40;;
43801;SDS011;29429;51.074;13.764;2023-09-18T16:56:25;4.30;;;1.30;;
43801;SDS011;29429;51.074;13.764;2023-09-18T16:58:53;3.25;;;1.20;;
43801;SDS011;29429;51.074;13.764;2023-09-18T17:01:20;2.33;;;1.30;;
43801;SDS011;29429;51.074;13.764;2023-09-18T17:03:48;4.65;;;1.30;;
43801;SDS011;29429;51.074;13.764;2023-09-18T17:06:16;3.53;;;1.20;;
43801;SDS011;29429;51.074;13.764;2023-09-18T17:08:46;3.72;;;1.15;;
43801;SDS011;29429;51.074;13.764;2023-09-18T17:11:17;3.17;;;1.45;;
43801;SDS011;29429;51.074;13.764;2023-09-18T17:13:45;4.50;;;2.00;;
43801;SDS011;29429;51.074;13.764;2023-09-18T17:16:12;4.18;;;1.38;;
43801;SDS011;29429;51.074;13.764;2023-09-18T17:18:40;2.58;;;1.40;;
43801;SDS011;29429;51.074;13.764;2023-09-18T17:21:09;3.80;;;1.40;;
43801;SDS011;29429;51.074;13.764;2023-09-18T17:23:36;2.60;;;1.40;;
43801;SDS011;29429;51.074;13.764;2023-09-18T17:26:04;4.63;;;1.50;;
43801;SDS011;29429;51.074;13.764;2023-09-18T17:28:32;3.65;;;1.63;;
43801;SDS011;29429;51.074;13.764;2023-09-18T17:31:00;6.22;;;1.83;;
43801;SDS011;29429;51.074;13.764;2023-09-18T17:33:27;3.75;;;1.35;;
43801;SDS011;29429;51.074;13.764;2023-09-18T17:35:55;4.53;;;1.40;;
43801;SDS011;29429;51.074;13.764;2023-09-18T17:38:24;5.95;;;1.85;;
43801;SDS011;29429;51.074;13.764;2023-09-18T17:40:52;4.60;;;2.08;;
43801;SDS011;29429;51.074;13.764;2023-09-18T17:43:19;7.68;;;1.90;;
43801;SDS011;29429;51.074;13.764;2023-09-18T17:45:46;3.50;;;1.58;;
43801;SDS011;29429;51.074;13.764;2023-09-18T17:48:14;3.28;;;1.85;;
43801;SDS011;29429;51.074;13.764;2023-09-18T17:50:41;3.25;;;1.58;;
43801;SDS011;29429;51.074;13.764;2023-09-18T17:53:09;2.78;;;1.70;;
43801;SDS011;29429;51.074;13.764;2023-09-18T17:55:36;4.55;;;1.70;;
43801;SDS011;29429;51.074;13.764;2023-09-18T17:58:04;4.10;;;1.83;;
43801;SDS011;29429;51.074;13.764;2023-09-18T18:00:31;7.05;;;2.05;;
43801;SDS011;29429;51.074;13.764;2023-09-18T18:02:59;4.57;;;1.80;;
43801;SDS011;29429;51.074;13.764;2023-09-18T18:05:27;3.22;;;1.77;;
43801;SDS011;29429;51.074;13.764;2023-09-18T18:07:56;7.10;;;2.40;;
43801;SDS011;29429;51.074;13.764;2023-09-18T18:10:23;5.45;;;1.92;;
43801;SDS011;29429;51.074;13.764;2023-09-18T18:12:51;4.80;;;2.03;;
43801;SDS011;29429;51.074;13.764;2023-09-18T18:15:18;4.35;;;1.50;;
43801;SDS011;29429;51.074;13.764;2023-09-18T18:17:45;4.57;;;2.33;;
43801;SDS011;29429;51.074;13.764;2023-09-18T18:20:14;5.97;;;1.80;;
43801;SDS011;29429;51.074;13.764;2023-09-18T18:22:42;6.45;;;2.25;;
43801;SDS011;29429;51.074;13.764;2023-09-18T18:25:09;4.63;;;1.92;;
43801;SDS011;29429;51.074;13.764;2023-09-18T18:27:39;3.08;;;1.80;;
43801;SDS011;29429;51.074;13.764;2023-09-18T18:30:06;4.50;;;2.03;;
43801;SDS011;29429;51.074;13.764;2023-09-18T18:32:35;6.05;;;2.10;;
43801;SDS011;29429;51.074;13.764;2023-09-18T18:35:03;6.28;;;2.92;;
43801;SDS011;29429;51.074;13.764;2023-09-18T18:37:31;5.18;;;2.15;;
43801;SDS011;29429;51.074;13.764;2023-09-18T18:39:58;5.25;;;1.98;;
43801;SDS011;29429;51.074;13.764;2023-09-18T18:42:26;6.05;;;2.10;;
43801;SDS011;29429;51.074;13.764;2023-09-18T18:44:55;4.95;;;2.05;;
43801;SDS011;29429;51.074;13.764;2023-09-18T18:47:22;4.82;;;1.88;;
43801;SDS011;29429;51.074;13.764;2023-09-18T18:49:50;5.70;;;1.98;;
43801;SDS011;29429;51.074;13.764;2023-09-18T18:52:18;4.60;;;2.88;;
43801;SDS011;29429;51.074;13.764;2023-09-18T18:54:45;6.88;;;2.15;;
43801;SDS011;29429;51.074;13.764;2023-09-18T18:57:16;3.47;;;2.00;;
43801;SDS011;29429;51.074;13.764;2023-09-18T18:59:44;4.72;;;2.17;;
43801;SDS011;29429;51.074;13.764;2023-09-18T19:02:11;4.38;;;2.17;;
43801;SDS011;29429;51.074;13.764;2023-09-18T19:04:39;4.78;;;2.25;;
43801;SDS011;29429;51.074;13.764;2023-09-18T19:07:06;4.53;;;2.00;;
43801;SDS011;29429;51.074;13.764;2023-09-18T19:09:37;5.32;;;2.08;;
43801;SDS011;29429;51.074;13.764;2023-09-18T19:12:07;7.40;;;2.35;;
43801;SDS011;29429;51.074;13.764;2023-09-18T19:14:34;3.45;;;1.90;;
43801;SDS011;29429;51.074;13.764;2023-09-18T19:17:02;5.50;;;1.98;;
43801;SDS011;29429;51.074;13.764;2023-09-18T19:19:31;5.65;;;2.05;;
43801;SDS011;29429;51.074;13.764;2023-09-18T19:21:58;3.92;;;1.80;;
43801;SDS011;29429;51.074;13.764;2023-09-18T19:24:25;3.63;;;1.67;;
43801;SDS011;29429;51.074;13.764;2023-09-18T19:26:53;3.60;;;1.75;;